createdAt,value
2018-08-16T00:01:17.385Z,90.30
2018-08-16T00:03:45.694Z,90.30
2018-08-16T00:06:13.958Z,90.40
2018-08-16T00:08:42.200Z,90.30
2018-08-16T00:11:10.538Z,90.30
2018-08-16T00:13:40.262Z,90.20
2018-08-16T00:16:08.728Z,90.30
2018-08-16T00:18:37.087Z,90.50
2018-08-16T00:21:05.535Z,90.80
2018-08-16T00:23:33.782Z,91.10
2018-08-16T00:26:01.970Z,91.20
2018-08-16T00:28:30.337Z,91.20
2018-08-16T00:30:58.763Z,91.50
2018-08-16T00:33:27.093Z,91.40
2018-08-16T00:35:55.455Z,91.50
2018-08-16T00:38:23.615Z,91.40
2018-08-16T00:40:51.828Z,91.50
2018-08-16T00:43:20.132Z,91.50
2018-08-16T00:45:48.434Z,91.50
2018-08-16T00:48:16.696Z,91.20
2018-08-16T00:50:44.923Z,91.00
2018-08-16T00:53:13.417Z,90.90
2018-08-16T00:55:41.706Z,90.80
2018-08-16T00:58:09.960Z,91.00
2018-08-16T01:00:38.168Z,91.30
2018-08-16T01:03:06.621Z,91.20
2018-08-16T01:05:35.517Z,91.10
2018-08-16T01:08:03.780Z,91.20
2018-08-16T01:10:32.029Z,91.30
2018-08-16T01:13:00.496Z,91.40
2018-08-16T01:15:28.717Z,91.20
2018-08-16T01:17:56.919Z,91.10
2018-08-16T01:20:25.311Z,91.20
2018-08-16T01:22:53.539Z,91.40
2018-08-16T01:25:22.895Z,91.30
2018-08-16T01:27:51.129Z,91.20
2018-08-16T01:30:19.463Z,91.30
2018-08-16T01:32:47.977Z,91.40
2018-08-16T01:35:16.318Z,91.70
2018-08-16T01:37:44.596Z,91.70
2018-08-16T01:40:13.236Z,91.60
2018-08-16T01:42:41.385Z,91.80
2018-08-16T01:45:10.661Z,92.10
2018-08-16T01:47:39.221Z,92.20
2018-08-16T01:50:07.758Z,92.10
2018-08-16T01:52:36.037Z,92.20
2018-08-16T01:55:04.927Z,92.00
2018-08-16T01:57:33.313Z,91.80
2018-08-16T02:00:01.583Z,91.80
2018-08-16T02:02:29.861Z,91.80
2018-08-16T02:04:58.422Z,91.70
2018-08-16T02:07:26.691Z,92.00
2018-08-16T02:09:55.585Z,92.00
2018-08-16T02:12:23.841Z,92.00
2018-08-16T02:14:52.220Z,91.70
2018-08-16T02:17:20.665Z,92.00
2018-08-16T02:19:48.935Z,91.80
2018-08-16T02:22:17.341Z,92.00
2018-08-16T02:24:45.883Z,91.90
2018-08-16T02:27:14.326Z,92.00
2018-08-16T02:29:42.565Z,91.90
2018-08-16T02:32:11.648Z,92.20
2018-08-16T02:34:39.983Z,92.20
2018-08-16T02:37:08.453Z,91.80
2018-08-16T02:39:36.776Z,92.00
2018-08-16T02:42:05.113Z,92.10
2018-08-16T02:44:33.390Z,92.20
2018-08-16T02:47:01.622Z,92.50
2018-08-16T02:49:30.014Z,92.70
2018-08-16T02:51:58.867Z,92.80
2018-08-16T02:54:27.286Z,92.80
2018-08-16T02:56:55.627Z,92.60
2018-08-16T02:59:24.144Z,92.60
2018-08-16T03:01:52.499Z,92.60
2018-08-16T03:04:20.828Z,92.60
2018-08-16T03:06:49.310Z,92.80
2018-08-16T03:09:17.620Z,92.90
2018-08-16T03:11:45.901Z,92.80
2018-08-16T03:14:14.346Z,92.90
2018-08-16T03:16:42.731Z,93.20
2018-08-16T03:19:11.447Z,93.10
2018-08-16T03:21:42.823Z,93.20
2018-08-16T03:24:11.135Z,93.20
2018-08-16T03:26:39.438Z,93.40
2018-08-16T03:29:07.688Z,93.30
2018-08-16T03:31:36.585Z,93.20
2018-08-16T03:34:04.896Z,93.20
2018-08-16T03:36:33.172Z,92.90
2018-08-16T03:39:01.401Z,92.80
2018-08-16T03:41:29.689Z,92.80
2018-08-16T03:43:58.092Z,92.80
2018-08-16T03:46:26.342Z,92.60
2018-08-16T03:48:54.642Z,92.50
2018-08-16T03:51:22.997Z,92.80
2018-08-16T03:53:51.260Z,93.30
2018-08-16T03:56:20.145Z,93.50
2018-08-16T03:58:48.364Z,94.60
2018-08-16T04:01:16.909Z,94.50
2018-08-16T04:03:45.284Z,94.50
2018-08-16T04:06:13.747Z,94.30
2018-08-16T04:08:42.102Z,94.60
2018-08-16T04:11:10.382Z,95.00
2018-08-16T04:13:38.656Z,95.10
2018-08-16T04:16:06.968Z,94.90
2018-08-16T04:18:35.291Z,94.90
2018-08-16T04:21:03.904Z,94.90
2018-08-16T04:23:32.332Z,94.90
2018-08-16T04:26:00.841Z,94.70
2018-08-16T04:28:29.154Z,94.70
2018-08-16T04:30:57.455Z,94.60
2018-08-16T04:33:25.734Z,94.70
2018-08-16T04:35:54.213Z,94.70
2018-08-16T04:38:22.589Z,94.70
2018-08-16T04:40:50.831Z,95.00
2018-08-16T04:43:19.213Z,95.20
2018-08-16T04:45:47.725Z,94.90
2018-08-16T04:48:16.170Z,94.80
2018-08-16T04:50:44.465Z,94.80
2018-08-16T04:53:12.759Z,94.70
2018-08-16T04:55:41.017Z,94.70
2018-08-16T04:58:09.272Z,94.70
2018-08-16T05:00:38.346Z,94.90
2018-08-16T05:03:06.657Z,94.80
2018-08-16T05:05:34.900Z,94.70
2018-08-16T05:08:03.561Z,94.90
2018-08-16T05:10:31.914Z,94.90
2018-08-16T05:13:00.591Z,94.90
2018-08-16T05:15:28.761Z,95.00
2018-08-16T05:17:57.264Z,94.90
2018-08-16T05:20:25.591Z,94.70
2018-08-16T05:22:53.956Z,94.60
2018-08-16T05:25:22.814Z,94.50
2018-08-16T05:27:51.024Z,94.20
2018-08-16T05:30:19.300Z,93.90
2018-08-16T05:32:47.713Z,93.90
2018-08-16T05:35:15.914Z,93.80
2018-08-16T05:37:44.223Z,93.70
2018-08-16T05:40:12.579Z,93.70
2018-08-16T05:42:40.896Z,93.60
2018-08-16T05:45:09.533Z,93.60
2018-08-16T05:47:38.101Z,93.60
2018-08-16T05:50:08.794Z,93.70
2018-08-16T05:52:37.300Z,93.40
2018-08-16T05:55:05.720Z,93.20
2018-08-16T05:57:33.995Z,93.00
2018-08-16T06:00:02.403Z,93.00
2018-08-16T06:02:30.881Z,92.70
2018-08-16T06:04:59.359Z,92.80
2018-08-16T06:07:27.908Z,92.50
2018-08-16T06:09:56.286Z,92.60
2018-08-16T06:12:24.670Z,92.40
2018-08-16T06:14:52.937Z,92.20
2018-08-16T06:17:21.375Z,92.10
2018-08-16T06:19:49.823Z,92.20
2018-08-16T06:22:18.127Z,92.10
2018-08-16T06:24:46.562Z,92.30
2018-08-16T06:27:14.771Z,92.30
2018-08-16T06:29:43.101Z,92.10
2018-08-16T06:32:11.503Z,91.60
2018-08-16T06:34:39.884Z,91.20
2018-08-16T06:37:08.243Z,90.90
2018-08-16T06:39:36.998Z,90.70
2018-08-16T06:42:05.728Z,90.40
2018-08-16T06:44:34.102Z,90.40
2018-08-16T06:47:02.989Z,90.30
2018-08-16T06:49:31.859Z,89.80
2018-08-16T06:52:00.300Z,89.70
2018-08-16T06:54:29.028Z,89.20
2018-08-16T06:56:57.499Z,88.70
2018-08-16T06:59:25.913Z,88.60
2018-08-16T07:01:54.241Z,87.80
2018-08-16T07:04:22.623Z,87.00
2018-08-16T07:06:51.120Z,87.30
2018-08-16T07:09:19.507Z,86.30
2018-08-16T07:11:47.915Z,85.60
2018-08-16T07:14:16.233Z,85.10
2018-08-16T07:16:44.878Z,85.40
2018-08-16T07:19:13.418Z,85.40
2018-08-16T07:21:41.748Z,84.60
2018-08-16T07:24:10.269Z,84.10
2018-08-16T07:26:38.648Z,83.60
2018-08-16T07:29:07.492Z,82.90
2018-08-16T07:31:36.000Z,82.60
2018-08-16T07:34:04.477Z,82.20
2018-08-16T07:36:33.051Z,81.40
2018-08-16T07:39:01.500Z,80.90
2018-08-16T07:41:29.768Z,80.60
2018-08-16T07:43:58.170Z,80.00
2018-08-16T07:46:26.726Z,79.40
2018-08-16T07:48:55.294Z,79.60
2018-08-16T07:51:23.838Z,79.10
2018-08-16T07:53:52.332Z,79.40
2018-08-16T07:56:20.619Z,78.40
2018-08-16T07:58:49.066Z,78.30
2018-08-16T08:01:17.470Z,77.70
2018-08-16T08:03:45.873Z,77.30
2018-08-16T08:06:14.156Z,76.70
2018-08-16T08:08:42.505Z,76.50
2018-08-16T08:11:10.934Z,75.50
2018-08-16T08:13:39.262Z,75.80
2018-08-16T08:16:07.655Z,75.80
2018-08-16T08:18:36.022Z,75.60
2018-08-16T08:21:04.419Z,75.40
2018-08-16T08:23:32.935Z,74.70
2018-08-16T08:26:01.297Z,74.70
2018-08-16T08:28:29.806Z,74.80
2018-08-16T08:30:58.241Z,74.20
2018-08-16T08:33:26.560Z,74.20
2018-08-16T08:36:06.238Z,74.10
2018-08-16T08:38:34.640Z,74.00
2018-08-16T08:41:03.011Z,73.50
2018-08-16T08:43:42.707Z,73.40
2018-08-16T08:46:10.989Z,72.70
2018-08-16T08:48:39.907Z,72.10
2018-08-16T08:51:08.573Z,70.70
2018-08-16T08:54:49.862Z,70.80
2018-08-16T08:57:30.104Z,70.00
2018-08-16T08:59:59.217Z,68.50
2018-08-16T09:02:27.788Z,67.80
2018-08-16T09:04:56.053Z,67.70
2018-08-16T09:07:24.753Z,66.50
2018-08-16T09:11:10.273Z,67.00
2018-08-16T09:13:50.867Z,67.20
2018-08-16T09:16:31.101Z,67.00
2018-08-16T09:18:59.899Z,66.80
2018-08-16T09:21:29.087Z,66.00
2018-08-16T09:23:57.723Z,65.30
2018-08-16T09:26:31.519Z,64.10
2018-08-16T09:28:59.946Z,64.60
2018-08-16T09:31:41.341Z,64.60
2018-08-16T09:34:22.103Z,64.30
2018-08-16T09:36:50.389Z,63.30
2018-08-16T09:39:19.298Z,62.90
2018-08-16T09:41:47.654Z,63.40
2018-08-16T09:44:15.959Z,62.10
2018-08-16T09:46:58.693Z,61.90
2018-08-16T09:49:27.444Z,61.80
2018-08-16T09:51:56.203Z,59.50
2018-08-16T09:54:24.712Z,59.20
2018-08-16T09:56:53.834Z,60.10
2018-08-16T09:59:22.224Z,59.30
2018-08-16T10:01:50.596Z,59.30
2018-08-16T10:04:18.986Z,59.40
2018-08-16T10:06:47.673Z,59.00
2018-08-16T10:09:22.313Z,58.80
2018-08-16T10:11:50.757Z,58.50
2018-08-16T10:14:19.275Z,58.50
2018-08-16T10:16:47.655Z,57.20
2018-08-16T10:19:16.098Z,57.40
2018-08-16T10:21:44.498Z,56.40
2018-08-16T10:24:13.022Z,56.30
2018-08-16T10:26:41.313Z,57.40
2018-08-16T10:29:10.229Z,57.30
2018-08-16T10:31:39.805Z,56.50
2018-08-16T10:34:08.266Z,56.70
2018-08-16T10:36:36.994Z,56.90
2018-08-16T10:39:09.114Z,56.80
2018-08-16T10:41:38.578Z,56.40
2018-08-16T10:44:07.452Z,56.10
2018-08-16T10:46:35.942Z,56.20
2018-08-16T10:49:04.841Z,56.20
2018-08-16T10:51:33.292Z,56.10
2018-08-16T10:54:01.632Z,56.20
2018-08-16T10:56:30.089Z,56.20
2018-08-16T10:58:58.941Z,56.00
2018-08-16T11:01:27.645Z,56.00
2018-08-16T11:03:56.962Z,56.10
2018-08-16T11:06:26.239Z,56.10
2018-08-16T11:08:55.003Z,56.00
2018-08-16T11:11:23.383Z,56.00
2018-08-16T11:13:52.134Z,56.00
2018-08-16T11:16:20.824Z,56.10
2018-08-16T11:18:49.811Z,55.50
2018-08-16T11:21:18.337Z,55.00
2018-08-16T11:23:47.439Z,55.10
2018-08-16T11:26:16.310Z,55.30
2018-08-16T11:28:45.239Z,55.00
2018-08-16T11:31:14.028Z,54.60
2018-08-16T11:33:45.490Z,54.70
2018-08-16T11:36:13.944Z,54.70
2018-08-16T11:38:42.735Z,54.60
2018-08-16T11:41:11.625Z,54.80
2018-08-16T11:43:40.085Z,54.40
2018-08-16T11:46:08.608Z,54.70
2018-08-16T11:48:37.047Z,54.10
2018-08-16T11:51:05.742Z,53.50
2018-08-16T11:53:34.109Z,53.50
2018-08-16T11:56:02.911Z,53.80
2018-08-16T11:58:32.610Z,54.10
2018-08-16T12:01:00.913Z,53.80
2018-08-16T12:03:30.515Z,53.40
2018-08-16T12:05:59.035Z,53.70
2018-08-16T12:08:27.539Z,53.60
2018-08-16T12:10:55.903Z,53.00
2018-08-16T12:13:24.458Z,53.20
2018-08-16T12:15:52.771Z,53.90
2018-08-16T12:18:21.174Z,53.20
2018-08-16T12:20:49.530Z,52.90
2018-08-16T12:23:17.760Z,53.40
2018-08-16T12:25:46.078Z,53.20
2018-08-16T12:28:14.548Z,53.30
2018-08-16T12:30:42.828Z,52.80
2018-08-16T12:33:11.356Z,52.90
2018-08-16T12:35:39.748Z,52.90
2018-08-16T12:38:08.223Z,52.20
2018-08-16T12:40:36.839Z,51.90
2018-08-16T12:43:05.226Z,51.40
2018-08-16T12:45:33.607Z,51.20
2018-08-16T12:48:02.079Z,51.40
2018-08-16T12:50:30.385Z,51.70
2018-08-16T12:52:58.733Z,51.90
2018-08-16T12:55:27.192Z,51.10
2018-08-16T12:57:55.556Z,51.80
2018-08-16T13:00:23.967Z,51.90
2018-08-16T13:02:52.745Z,52.70
2018-08-16T13:05:21.111Z,52.20
2018-08-16T13:07:49.606Z,51.50
2018-08-16T13:10:18.509Z,50.70
2018-08-16T13:12:47.050Z,51.10
2018-08-16T13:15:15.386Z,51.40
2018-08-16T13:17:44.136Z,51.80
2018-08-16T13:20:12.709Z,50.90
2018-08-16T13:22:41.683Z,51.00
2018-08-16T13:25:10.180Z,51.20
2018-08-16T13:27:39.127Z,49.80
2018-08-16T13:30:08.527Z,50.10
2018-08-16T13:32:37.463Z,49.90
2018-08-16T13:35:06.275Z,50.20
2018-08-16T13:37:34.716Z,50.20
2018-08-16T13:40:03.130Z,50.40
2018-08-16T13:42:32.837Z,50.10
2018-08-16T13:45:01.157Z,50.10
2018-08-16T13:47:29.441Z,50.70
2018-08-16T13:49:57.813Z,49.80
2018-08-16T13:52:26.433Z,49.60
2018-08-16T13:54:54.880Z,50.10
2018-08-16T13:57:23.291Z,50.70
2018-08-16T13:59:51.851Z,50.30
2018-08-16T14:02:21.595Z,49.80
2018-08-16T14:04:49.974Z,50.00
2018-08-16T14:07:19.196Z,49.90
2018-08-16T14:09:48.068Z,49.60
2018-08-16T14:12:16.790Z,49.90
2018-08-16T14:14:45.281Z,49.70
2018-08-16T14:17:13.958Z,49.30
2018-08-16T14:19:42.515Z,49.40
2018-08-16T14:22:11.720Z,49.30
2018-08-16T14:24:40.233Z,48.60
2018-08-16T14:27:08.721Z,48.70
2018-08-16T14:29:37.245Z,48.70
2018-08-16T14:32:05.612Z,48.50
2018-08-16T14:34:34.073Z,48.10
2018-08-16T14:37:02.987Z,48.00
2018-08-16T14:39:31.470Z,47.30
2018-08-16T14:42:00.371Z,47.10
2018-08-16T14:44:29.466Z,46.80
2018-08-16T14:46:57.671Z,47.30
2018-08-16T14:49:26.212Z,47.60
2018-08-16T14:51:54.854Z,47.60
2018-08-16T14:54:29.645Z,47.50
2018-08-16T14:56:58.322Z,47.00
2018-08-16T14:59:26.684Z,47.10
2018-08-16T15:01:55.224Z,46.50
2018-08-16T15:04:24.240Z,46.00
2018-08-16T15:06:52.550Z,46.20
2018-08-16T15:09:20.779Z,46.20
2018-08-16T15:11:49.156Z,46.00
2018-08-16T15:14:17.908Z,46.10
2018-08-16T15:16:46.223Z,46.50
2018-08-16T15:19:14.699Z,46.30
2018-08-16T15:21:43.136Z,45.80
2018-08-16T15:24:11.650Z,45.90
2018-08-16T15:26:40.082Z,45.90
2018-08-16T15:29:08.562Z,45.60
2018-08-16T15:31:36.940Z,45.50
2018-08-16T15:34:05.439Z,45.40
2018-08-16T15:36:34.421Z,45.40
2018-08-16T15:39:02.765Z,45.90
2018-08-16T15:41:31.087Z,46.30
2018-08-16T15:44:00.349Z,46.00
2018-08-16T15:46:28.806Z,46.00
2018-08-16T15:48:57.306Z,46.40
2018-08-16T15:51:25.803Z,46.70
2018-08-16T15:53:54.210Z,46.20
2018-08-16T15:56:23.061Z,46.50
2018-08-16T15:58:51.336Z,46.40
2018-08-16T16:01:19.938Z,46.40
2018-08-16T16:03:48.732Z,46.40
2018-08-16T16:06:17.269Z,46.40
2018-08-16T16:08:45.693Z,46.40
2018-08-16T16:11:14.168Z,46.90
2018-08-16T16:13:43.104Z,46.80
2018-08-16T16:16:11.552Z,47.10
2018-08-16T16:18:40.202Z,46.90
2018-08-16T16:21:08.956Z,47.00
2018-08-16T16:23:37.538Z,46.80
2018-08-16T16:26:06.296Z,46.90
2018-08-16T16:28:34.632Z,47.00
2018-08-16T16:31:03.796Z,46.40
2018-08-16T16:33:32.882Z,46.30
2018-08-16T16:36:01.530Z,46.20
2018-08-16T16:38:29.998Z,45.90
2018-08-16T16:40:58.485Z,46.40
2018-08-16T16:43:27.434Z,46.40
2018-08-16T16:45:56.002Z,46.40
2018-08-16T16:48:24.406Z,46.60
2018-08-16T16:50:52.746Z,46.60
2018-08-16T16:53:21.296Z,46.90
2018-08-16T16:55:49.964Z,46.80
2018-08-16T16:58:18.568Z,47.50
2018-08-16T17:00:47.006Z,47.40
2018-08-16T17:03:15.662Z,47.60
2018-08-16T17:05:44.207Z,47.60
2018-08-16T17:08:12.745Z,48.00
2018-08-16T17:10:41.109Z,48.30
2018-08-16T17:13:09.727Z,48.20
2018-08-16T17:15:38.203Z,48.40
2018-08-16T17:18:07.474Z,48.70
2018-08-16T17:20:35.886Z,48.50
2018-08-16T17:23:04.664Z,48.30
2018-08-16T17:25:34.071Z,48.40
2018-08-16T17:28:03.138Z,48.50
2018-08-16T17:30:32.350Z,48.70
2018-08-16T17:33:00.757Z,48.30
2018-08-16T17:35:29.365Z,49.30
2018-08-16T17:37:58.213Z,48.90
2018-08-16T17:40:27.473Z,49.30
2018-08-16T17:42:56.496Z,49.40
2018-08-16T17:45:24.825Z,49.50
2018-08-16T17:47:54.115Z,50.50
2018-08-16T17:50:23.091Z,49.40
2018-08-16T17:52:51.515Z,50.50
2018-08-16T17:55:20.118Z,50.00
2018-08-16T17:57:48.524Z,49.80
2018-08-16T18:00:17.269Z,50.00
2018-08-16T18:02:45.703Z,50.00
2018-08-16T18:05:14.043Z,50.10
2018-08-16T18:07:42.430Z,50.10
2018-08-16T18:10:10.840Z,50.30
2018-08-16T18:12:39.283Z,50.20
2018-08-16T18:15:10.058Z,50.10
2018-08-16T18:17:38.633Z,50.20
2018-08-16T18:20:07.113Z,50.70
2018-08-16T18:22:36.106Z,50.50
2018-08-16T18:25:05.263Z,50.60
2018-08-16T18:27:33.598Z,50.70
2018-08-16T18:30:02.249Z,50.60
2018-08-16T18:32:30.626Z,50.80
2018-08-16T18:34:58.961Z,50.70
2018-08-16T18:37:27.711Z,51.30
2018-08-16T18:39:56.187Z,51.00
2018-08-16T18:42:24.800Z,51.00
2018-08-16T18:44:54.211Z,51.10
2018-08-16T18:47:22.735Z,51.20
2018-08-16T18:49:51.334Z,51.10
2018-08-16T18:52:19.879Z,51.20
2018-08-16T18:54:48.932Z,51.20
2018-08-16T18:57:17.594Z,51.30
2018-08-16T18:59:46.112Z,51.40
2018-08-16T19:02:14.504Z,51.60
2018-08-16T19:04:43.632Z,51.50
2018-08-16T19:07:12.050Z,51.60
2018-08-16T19:09:40.331Z,51.60
2018-08-16T19:12:09.050Z,51.70
2018-08-16T19:14:37.363Z,51.70
2018-08-16T19:17:05.677Z,52.00
2018-08-16T19:19:34.691Z,51.80
2018-08-16T19:22:03.055Z,52.00
2018-08-16T19:24:31.500Z,51.90
2018-08-16T19:26:59.759Z,52.20
2018-08-16T19:29:28.166Z,52.50
2018-08-16T19:31:57.874Z,52.50
2018-08-16T19:34:26.077Z,52.50
2018-08-16T19:36:54.467Z,52.50
2018-08-16T19:39:22.848Z,52.40
2018-08-16T19:41:51.156Z,52.60
2018-08-16T19:44:19.460Z,52.50
2018-08-16T19:46:47.889Z,52.50
2018-08-16T19:49:16.313Z,52.50
2018-08-16T19:51:44.960Z,52.50
2018-08-16T19:54:14.242Z,52.30
2018-08-16T19:56:43.486Z,52.50
2018-08-16T19:59:11.806Z,52.80
2018-08-16T20:01:40.209Z,52.60
2018-08-16T20:04:08.529Z,52.70
2018-08-16T20:06:37.144Z,52.70
2018-08-16T20:09:08.389Z,52.70
2018-08-16T20:11:37.153Z,52.80
2018-08-16T20:14:05.725Z,52.60
2018-08-16T20:16:34.441Z,52.90
2018-08-16T20:19:09.601Z,52.60
2018-08-16T20:21:38.078Z,52.80
2018-08-16T20:24:06.677Z,52.80
2018-08-16T20:26:35.233Z,52.80
2018-08-16T20:29:03.638Z,52.80
2018-08-16T20:31:32.426Z,52.70
2018-08-16T20:34:01.295Z,52.90
2018-08-16T20:36:29.837Z,52.80
2018-08-16T20:38:59.121Z,53.00
2018-08-16T20:41:28.486Z,53.00
2018-08-16T20:43:57.308Z,52.90
2018-08-16T20:46:26.280Z,52.90
2018-08-16T20:48:54.817Z,53.20
2018-08-16T20:51:26.110Z,53.30
2018-08-16T20:53:54.673Z,53.20
2018-08-16T20:56:23.171Z,53.30
2018-08-16T20:58:51.499Z,53.30
2018-08-16T21:01:20.216Z,53.30
2018-08-16T21:03:48.809Z,53.20
2018-08-16T21:06:17.598Z,53.10
2018-08-16T21:08:47.928Z,53.70
2018-08-16T21:11:16.242Z,53.20
2018-08-16T21:13:45.554Z,53.50
2018-08-16T21:16:13.884Z,53.50
2018-08-16T21:18:42.162Z,53.20
2018-08-16T21:21:10.899Z,53.50
2018-08-16T21:23:39.372Z,53.30
2018-08-16T21:26:07.863Z,53.50
2018-08-16T21:28:36.153Z,53.50
2018-08-16T21:31:05.175Z,53.30
2018-08-16T21:33:33.548Z,53.70
2018-08-16T21:36:01.801Z,53.30
2018-08-16T21:38:30.456Z,53.90
2018-08-16T21:40:59.006Z,53.60
2018-08-16T21:43:27.245Z,53.40
2018-08-16T21:45:55.687Z,54.50
2018-08-16T21:48:24.098Z,54.00
2018-08-16T21:50:52.352Z,53.40
2018-08-16T21:53:21.276Z,53.50
2018-08-16T21:55:49.599Z,53.40
2018-08-16T21:58:18.029Z,53.60
2018-08-16T22:00:50.142Z,53.70
2018-08-16T22:03:20.680Z,53.90
2018-08-16T22:05:59.344Z,54.00
2018-08-16T22:08:46.579Z,53.90
2018-08-16T22:11:15.056Z,54.10
2018-08-16T22:13:43.622Z,54.20
2018-08-16T22:16:12.252Z,54.00
2018-08-16T22:18:40.554Z,54.20
2018-08-16T22:21:09.341Z,54.00
2018-08-16T22:23:37.713Z,54.00
2018-08-16T22:26:06.145Z,53.80
2018-08-16T22:28:34.429Z,54.30
2018-08-16T22:31:02.718Z,53.80
2018-08-16T22:33:31.451Z,53.80
2018-08-16T22:35:59.796Z,53.90
2018-08-16T22:38:28.018Z,53.90
2018-08-16T22:40:56.403Z,53.80
2018-08-16T22:43:24.662Z,53.90
2018-08-16T22:45:53.029Z,53.90
2018-08-16T22:48:24.144Z,53.60
2018-08-16T22:50:52.392Z,53.70
2018-08-16T22:53:20.726Z,53.80
2018-08-16T22:55:49.235Z,54.20
2018-08-16T22:58:17.456Z,53.80
2018-08-16T23:00:45.688Z,53.80
2018-08-16T23:03:13.906Z,53.50
2018-08-16T23:05:42.156Z,53.50
2018-08-16T23:08:10.527Z,53.60
2018-08-16T23:10:38.885Z,53.80
2018-08-16T23:13:07.301Z,53.80
2018-08-16T23:15:36.003Z,53.60
2018-08-16T23:18:04.233Z,53.80
2018-08-16T23:20:32.640Z,53.70
2018-08-16T23:23:00.911Z,53.60
2018-08-16T23:25:29.158Z,53.40
2018-08-16T23:27:57.457Z,53.40
2018-08-16T23:30:25.785Z,53.50
2018-08-16T23:32:53.989Z,53.60
2018-08-16T23:35:22.232Z,53.60
2018-08-16T23:37:50.567Z,53.60
2018-08-16T23:40:18.948Z,53.20
2018-08-16T23:42:47.217Z,53.50
2018-08-16T23:45:15.555Z,53.30
2018-08-16T23:47:53.888Z,53.60
2018-08-16T23:50:22.303Z,53.50
2018-08-16T23:52:50.570Z,53.30
2018-08-16T23:55:18.804Z,53.40
2018-08-16T23:57:47.039Z,53.50
